Lord Nelson — GHJV — position and weather

sailwx.info

Track history (hours):
 
Tides and Currents Weather Stations Pressure Air Temp Water Temp Dewpoint Dewpoint Depression Visibility Wind Speed Wind Dir Waves Ship Positions

Lord Nelson (United Kingdom)

Ship's website: http://www.jst.org.uk/

Last reported at 2015-Jan-28 22:33 UTC. Time now 2015-Jan-29 04:18 UTC.
Position N 17°01' W 061°58'.

Length 54.7 m; beam 9 m; draft 4.1 m.

Type: Sailing vessel. MMSI: 232003690.

Date/timePositionNaut miles runAvg speedWind from/ knotsBaromVisibWave heightAir tempDewpointWater temp
2015-Jan-28 22:33N 17°01' W 061°58'7 7.2
2015-Jan-28 21:33N 16°59' W 061°50'3 3.4
2015-Jan-28 20:32N 17°01' W 061°47'0 0.0
2015-Jan-28 19:32N 17°01' W 061°47'0 0.0
2015-Jan-28 18:32N 17°01' W 061°47'0 0.0
2015-Jan-28 17:32N 17°01' W 061°47'0 0.0
2015-Jan-28 16:32N 17°01' W 061°47'1 0.8
2015-Jan-28 15:32N 17°01' W 061°46'0 0.0
2015-Jan-28 14:32N 17°01' W 061°46'0 0.0
2015-Jan-28 13:32N 17°01' W 061°46'0 0.0
2015-Jan-28 12:32N 17°01' W 061°46'0 0.0
2015-Jan-28 11:32N 17°01' W 061°46'0 0.0
2015-Jan-28 10:32N 17°01' W 061°46'0 0.0
2015-Jan-28 09:32N 17°01' W 061°46'0 0.0
2015-Jan-28 08:32N 17°01' W 061°46'0 0.0
2015-Jan-28 07:32N 17°01' W 061°46'0 0.0
2015-Jan-28 06:32N 17°01' W 061°46'0 0.0
2015-Jan-28 05:29N 17°01' W 061°46'0 0.0
2015-Jan-28 04:32N 17°01' W 061°46'0 0.0
2015-Jan-28 03:32N 17°01' W 061°46'0 0.0
2015-Jan-28 02:32N 17°01' W 061°46'0 0.0
2015-Jan-28 01:32N 17°01' W 061°46'0 0.0
2015-Jan-28 00:32N 17°01' W 061°46'0 0.0
2015-Jan-27 23:32N 17°01' W 061°46'0 0.0
2015-Jan-27 22:32N 17°01' W 061°46'0 0.0
2015-Jan-27 21:32N 17°01' W 061°46'0 0.0
2015-Jan-27 20:31N 17°01' W 061°46'0 0.0
2015-Jan-27 19:31N 17°01' W 061°46'0 0.0
2015-Jan-27 18:31N 17°01' W 061°46'0 0.0
2015-Jan-27 17:31N 17°01' W 061°46'0 0.0
2015-Jan-27 16:31N 17°01' W 061°46'0 0.0
2015-Jan-27 15:31N 17°01' W 061°46'0 0.0
2015-Jan-27 14:31N 17°01' W 061°46'0 0.0
2015-Jan-27 13:31N 17°01' W 061°46'0 0.0
2015-Jan-27 12:31N 17°01' W 061°46'1 0.0
2015-Jan-25 16:14N 17°01' W 061°47'0 0.0
2015-Jan-25 15:32N 17°01' W 061°47'0 0.3
2015-Jan-25 14:34N 17°00' W 061°47'2 1.5
2015-Jan-25 13:33N 16°59' W 061°48'3 3.1
2015-Jan-25 12:33N 16°58' W 061°51'3 3.1
2015-Jan-25 11:33N 16°55' W 061°51'3 3.1
2015-Jan-25 10:34N 16°52' W 061°51'3 3.1
2015-Jan-25 09:34N 16°48' W 061°51'3 3.4
2015-Jan-25 08:33N 16°45' W 061°51'5 4.6
2015-Jan-25 07:34N 16°40' W 061°51'5 5.4
2015-Jan-25 06:34N 16°35' W 061°51'8 6.5
2015-Jan-25 05:18N 16°27' W 061°51'30 6.3
2015-Jan-25 00:32N 15°57' W 061°46'  
2015-Jan-20 03:00N 13°06' W 060°24'   060 / 131016.210.8 26.022.827.7
Track history (hours):
 
Tides and Currents Weather Stations Pressure Air Temp Water Temp Dewpoint Dewpoint Depression Visibility Wind Speed Wind Dir Waves Ship Positions

Lord Nelson (United Kingdom)

Ship's website: http://www.jst.org.uk/

Last reported at 2015-Jan-28 22:33 UTC. Time now 2015-Jan-29 04:18 UTC.
Position N 17°01' W 061°58'.

Length 54.7 m; beam 9 m; draft 4.1 m.

Type: Sailing vessel. MMSI: 232003690.

Date/timePositionNaut miles runAvg speedWind from/ knotsBaromVisibWave heightAir tempDewpointWater temp
2015-Jan-28 22:33N 17°01' W 061°58'7 7.2
2015-Jan-28 21:33N 16°59' W 061°50'3 3.4
2015-Jan-28 20:32N 17°01' W 061°47'0 0.0
2015-Jan-28 19:32N 17°01' W 061°47'0 0.0
2015-Jan-28 18:32N 17°01' W 061°47'0 0.0
2015-Jan-28 17:32N 17°01' W 061°47'0 0.0
2015-Jan-28 16:32N 17°01' W 061°47'1 0.8
2015-Jan-28 15:32N 17°01' W 061°46'0 0.0
2015-Jan-28 14:32N 17°01' W 061°46'0 0.0
2015-Jan-28 13:32N 17°01' W 061°46'0 0.0
2015-Jan-28 12:32N 17°01' W 061°46'0 0.0
2015-Jan-28 11:32N 17°01' W 061°46'0 0.0
2015-Jan-28 10:32N 17°01' W 061°46'0 0.0
2015-Jan-28 09:32N 17°01' W 061°46'0 0.0
2015-Jan-28 08:32N 17°01' W 061°46'0 0.0
2015-Jan-28 07:32N 17°01' W 061°46'0 0.0
2015-Jan-28 06:32N 17°01' W 061°46'0 0.0
2015-Jan-28 05:29N 17°01' W 061°46'0 0.0
2015-Jan-28 04:32N 17°01' W 061°46'0 0.0
2015-Jan-28 03:32N 17°01' W 061°46'0 0.0
2015-Jan-28 02:32N 17°01' W 061°46'0 0.0
2015-Jan-28 01:32N 17°01' W 061°46'0 0.0
2015-Jan-28 00:32N 17°01' W 061°46'0 0.0
2015-Jan-27 23:32N 17°01' W 061°46'0 0.0
2015-Jan-27 22:32N 17°01' W 061°46'0 0.0
2015-Jan-27 21:32N 17°01' W 061°46'0 0.0
2015-Jan-27 20:31N 17°01' W 061°46'0 0.0
2015-Jan-27 19:31N 17°01' W 061°46'0 0.0
2015-Jan-27 18:31N 17°01' W 061°46'0 0.0
2015-Jan-27 17:31N 17°01' W 061°46'0 0.0
2015-Jan-27 16:31N 17°01' W 061°46'0 0.0
2015-Jan-27 15:31N 17°01' W 061°46'0 0.0
2015-Jan-27 14:31N 17°01' W 061°46'0 0.0
2015-Jan-27 13:31N 17°01' W 061°46'0 0.0
2015-Jan-27 12:31N 17°01' W 061°46'1 0.0
2015-Jan-25 16:14N 17°01' W 061°47'0 0.0
2015-Jan-25 15:32N 17°01' W 061°47'0 0.3
2015-Jan-25 14:34N 17°00' W 061°47'2 1.5
2015-Jan-25 13:33N 16°59' W 061°48'3 3.1
2015-Jan-25 12:33N 16°58' W 061°51'3 3.1
2015-Jan-25 11:33N 16°55' W 061°51'3 3.1
2015-Jan-25 10:34N 16°52' W 061°51'3 3.1
2015-Jan-25 09:34N 16°48' W 061°51'3 3.4
2015-Jan-25 08:33N 16°45' W 061°51'5 4.6
2015-Jan-25 07:34N 16°40' W 061°51'5 5.4
2015-Jan-25 06:34N 16°35' W 061°51'8 6.5
2015-Jan-25 05:18N 16°27' W 061°51'30 6.3
2015-Jan-25 00:32N 15°57' W 061°46'  
2015-Jan-20 03:00N 13°06' W 060°24'   060 / 131016.210.8 26.022.827.7

Dump ship's entire track history